Time;durP1;ratioP1;P1;durP2;ratioP2;P2;SDS_P1;SDS_P2;PMS_P1;PMS_P2;Temp;Humidity;BMP_temperature;BMP_pressure;BME280_temperature;BME280_humidity;BME280_pressure;Samples;Min_cycle;Max_cycle;Signal;HPM_P1;HPM_P2
2023/04/19 00:00:40;;;;;;;2.65;1.70;;;;;;;11.81;56.42;94577.31;5027991;28;20060;-77
2023/04/19 00:03:05;;;;;;;2.63;1.52;;;;;;;11.83;56.32;94581.19;5044639;28;20024;-78
2023/04/19 00:05:31;;;;;;;2.75;1.60;;;;;;;11.80;56.39;94567.53;5045679;28;20051;-78
2023/04/19 00:07:57;;;;;;;1.73;1.40;;;;;;;11.79;56.44;94569.53;5044153;28;20028;-78
2023/04/19 00:10:23;;;;;;;2.67;1.80;;;;;;;11.82;56.42;94567.88;5044030;28;20405;-78
2023/04/19 00:12:48;;;;;;;3.00;1.60;;;;;;;11.82;56.13;94563.16;5044507;28;20137;-78
2023/04/19 00:15:14;;;;;;;2.92;1.63;;;;;;;11.84;55.98;94563.44;5046096;28;20063;-79
2023/04/19 00:17:39;;;;;;;2.58;1.70;;;;;;;11.83;56.41;94566.66;5044273;28;20028;-78
2023/04/19 00:20:05;;;;;;;2.95;1.42;;;;;;;11.80;56.05;94565.53;5044859;28;20395;-78
2023/04/19 00:22:31;;;;;;;2.78;1.50;;;;;;;11.81;56.20;94560.78;5046317;28;20392;-79
2023/04/19 00:24:56;;;;;;;2.50;1.38;;;;;;;11.81;56.13;94558.84;5031401;28;20025;-79
2023/04/19 00:27:22;;;;;;;3.50;1.40;;;;;;;11.83;55.94;94561.91;5043893;28;20025;-78
2023/04/19 00:29:47;;;;;;;2.58;1.30;;;;;;;11.63;56.61;94562.25;5044630;28;20043;-78
2023/04/19 00:32:12;;;;;;;2.95;1.50;;;;;;;11.68;56.67;94555.41;5043970;28;20028;-79
2023/04/19 00:34:38;;;;;;;3.28;1.45;;;;;;;11.72;56.67;94555.28;5044205;28;20029;-79
2023/04/19 00:37:04;;;;;;;3.05;1.30;;;;;;;11.72;56.81;94556.03;5044479;28;20029;-78
2023/04/19 00:39:30;;;;;;;3.13;1.80;;;;;;;11.73;56.73;94556.78;5045476;28;20123;-78
2023/04/19 00:41:56;;;;;;;3.00;1.70;;;;;;;11.74;56.88;94564.59;5043939;28;20086;-78
2023/04/19 00:44:22;;;;;;;2.38;1.52;;;;;;;11.72;57.06;94553.28;5044878;28;20017;-78
2023/04/19 00:46:48;;;;;;;3.05;1.73;;;;;;;11.63;57.33;94556.00;5045627;28;20214;-78
2023/04/19 00:49:13;;;;;;;4.85;1.58;;;;;;;11.60;57.65;94548.66;5043567;28;20455;-79
2023/04/19 00:51:39;;;;;;;2.35;1.30;;;;;;;11.67;57.32;94548.38;5044121;28;20052;-79
2023/04/19 00:54:05;;;;;;;3.03;1.67;;;;;;;11.60;57.69;94546.66;5043961;28;20078;-78
2023/04/19 00:56:33;;;;;;;2.20;1.52;;;;;;;11.62;57.62;94557.97;5044034;28;20259;-78
2023/04/19 00:58:58;;;;;;;2.47;1.67;;;;;;;11.58;57.73;94551.84;5045199;28;20452;-79
2023/04/19 01:01:23;;;;;;;2.67;2.10;;;;;;;11.46;58.37;94551.94;5045026;28;20029;-78
2023/04/19 01:03:49;;;;;;;2.55;1.55;;;;;;;11.55;58.36;94544.50;5045475;28;20017;-78
2023/04/19 01:06:14;;;;;;;2.45;1.98;;;;;;;11.53;58.21;94537.91;5043314;28;20037;-79
2023/04/19 01:08:40;;;;;;;3.38;1.80;;;;;;;11.43;58.46;94545.34;5043941;28;20049;-77
2023/04/19 01:11:07;;;;;;;2.15;1.42;;;;;;;11.44;58.74;94544.13;5044905;28;20101;-78
2023/04/19 01:13:32;;;;;;;2.65;1.85;;;;;;;11.43;58.67;94539.84;5045292;28;20476;-77
2023/04/19 01:15:58;;;;;;;2.20;1.67;;;;;;;11.35;58.64;94538.56;5028521;28;20036;-79
2023/04/19 01:18:24;;;;;;;3.30;1.50;;;;;;;11.25;59.20;94532.28;5049807;28;20040;-77
2023/04/19 01:20:50;;;;;;;1.98;1.42;;;;;;;11.34;58.70;94535.06;5046958;28;20625;-77
2023/04/19 01:23:16;;;;;;;2.28;1.45;;;;;;;11.34;58.75;94534.28;5047221;28;20028;-77
2023/04/19 01:25:41;;;;;;;3.08;1.75;;;;;;;11.22;59.16;94540.66;5049354;28;20021;-78
2023/04/19 01:28:07;;;;;;;3.10;1.80;;;;;;;11.02;59.75;94541.00;5047170;28;20070;-78
2023/04/19 01:30:34;;;;;;;2.45;1.92;;;;;;;11.03;59.80;94537.81;5047825;28;20041;-78
2023/04/19 01:32:59;;;;;;;2.90;1.80;;;;;;;10.99;59.93;94528.16;5049204;28;20319;-77
2023/04/19 01:35:25;;;;;;;2.63;1.83;;;;;;;10.93;59.99;94516.97;5047188;28;20163;-78
2023/04/19 01:37:52;;;;;;;2.05;1.63;;;;;;;11.09;59.66;94527.75;5047760;28;20021;-77
2023/04/19 01:40:17;;;;;;;2.70;1.75;;;;;;;11.02;59.92;94527.25;5048049;28;20560;-78
2023/04/19 01:42:43;;;;;;;3.28;2.05;;;;;;;11.07;59.52;94535.69;5048812;28;20466;-78
2023/04/19 01:45:09;;;;;;;2.70;2.00;;;;;;;11.06;59.73;94534.16;5046467;28;20085;-78
2023/04/19 01:47:34;;;;;;;2.50;1.98;;;;;;;10.87;60.35;94533.28;5047683;28;20033;-77
2023/04/19 01:49:59;;;;;;;5.28;2.05;;;;;;;10.97;60.05;94527.84;5047327;28;20373;-78
2023/04/19 01:52:25;;;;;;;2.92;2.30;;;;;;;10.94;60.08;94531.47;5048437;28;20107;-77
2023/04/19 01:54:50;;;;;;;2.92;2.17;;;;;;;10.95;60.00;94531.03;5047497;28;20031;-78
2023/04/19 01:57:17;;;;;;;2.83;2.10;;;;;;;10.95;60.07;94531.03;5048130;28;20056;-77
2023/04/19 01:59:43;;;;;;;2.97;2.00;;;;;;;10.93;60.12;94527.19;5047262;28;20077;-77
2023/04/19 02:02:08;;;;;;;2.97;2.40;;;;;;;10.88;60.22;94526.53;5046757;28;20562;-76
2023/04/19 02:04:34;;;;;;;2.40;2.10;;;;;;;10.92;60.17;94525.66;5046917;28;20255;-77
2023/04/19 02:06:59;;;;;;;4.00;2.13;;;;;;;10.96;59.95;94521.56;5046526;28;20029;-78
2023/04/19 02:09:25;;;;;;;3.53;2.28;;;;;;;10.95;60.00;94530.25;5046998;28;20453;-77
2023/04/19 02:11:50;;;;;;;3.05;2.50;;;;;;;10.93;59.93;94518.94;5051776;28;20021;-77
2023/04/19 02:14:16;;;;;;;3.78;2.15;;;;;;;10.94;59.87;94529.50;5046760;28;20501;-77
2023/04/19 02:16:41;;;;;;;3.42;2.60;;;;;;;10.85;59.87;94529.44;5047142;28;20036;-77
2023/04/19 02:19:07;;;;;;;2.80;2.38;;;;;;;10.96;59.45;94529.06;5046332;28;20495;-77
2023/04/19 02:21:32;;;;;;;2.85;2.50;;;;;;;10.97;59.61;94525.84;5048360;28;20029;-77
2023/04/19 02:23:58;;;;;;;3.08;2.10;;;;;;;10.96;59.82;94529.81;5047584;28;20031;-77
2023/04/19 02:26:23;;;;;;;2.90;2.60;;;;;;;10.92;59.92;94522.91;5046735;28;20021;-77
2023/04/19 02:28:52;;;;;;;3.22;2.50;;;;;;;10.87;60.00;94527.78;5047641;28;20033;-79
2023/04/19 02:31:17;;;;;;;3.92;2.65;;;;;;;10.81;59.92;94513.06;5045899;28;20040;-79
2023/04/19 02:33:43;;;;;;;5.47;3.15;;;;;;;10.76;59.99;94513.63;5046752;28;20029;-78
2023/04/19 02:36:08;;;;;;;4.15;3.22;;;;;;;10.73;60.25;94517.31;5046205;28;20029;-79
2023/04/19 02:38:34;;;;;;;3.53;2.88;;;;;;;10.73;60.32;94519.28;5046481;28;20033;-78
2023/04/19 02:41:00;;;;;;;5.00;2.80;;;;;;;10.62;60.56;94522.41;5047441;28;20052;-77
2023/04/19 02:43:25;;;;;;;4.65;2.90;;;;;;;10.63;60.66;94521.97;5047506;28;20396;-80
2023/04/19 02:45:52;;;;;;;3.28;2.78;;;;;;;10.64;60.37;94518.00;5029537;28;20025;-78
2023/04/19 02:48:17;;;;;;;3.10;2.67;;;;;;;10.57;60.82;94521.00;5029976;28;20025;-77
2023/04/19 02:50:42;;;;;;;3.83;2.78;;;;;;;10.55;60.60;94517.94;5046052;28;20017;-78
2023/04/19 02:53:08;;;;;;;3.85;3.15;;;;;;;10.59;60.51;94509.56;5047758;28;20479;-77
2023/04/19 02:55:33;;;;;;;3.70;2.92;;;;;;;10.68;60.49;94517.88;5047711;28;20148;-78
2023/04/19 02:57:59;;;;;;;6.18;3.22;;;;;;;10.58;60.63;94511.53;5046773;28;20049;-77
2023/04/19 03:00:24;;;;;;;4.43;2.60;;;;;;;10.71;60.29;94507.94;5046448;28;20047;-76
2023/04/19 03:02:50;;;;;;;3.97;3.08;;;;;;;10.69;60.36;94515.88;5047041;28;20044;-79
2023/04/19 03:05:15;;;;;;;3.95;3.00;;;;;;;10.59;60.47;94507.56;5051599;28;20025;-77
2023/04/19 03:07:40;;;;;;;3.28;2.80;;;;;;;10.60;60.22;94502.84;5047574;28;20116;-78
2023/04/19 03:10:06;;;;;;;5.18;3.30;;;;;;;10.49;60.76;94514.19;5045833;28;20032;-78
2023/04/19 03:12:32;;;;;;;4.57;3.15;;;;;;;10.60;60.42;94516.56;5045588;28;20087;-77
2023/04/19 03:14:57;;;;;;;4.68;3.28;;;;;;;10.39;61.06;94514.59;5046820;28;20029;-79
2023/04/19 03:17:23;;;;;;;3.10;2.78;;;;;;;10.36;61.37;94514.25;5047360;28;20104;-78
2023/04/19 03:19:48;;;;;;;5.05;2.80;;;;;;;10.43;61.03;94512.47;5046375;28;20048;-77
2023/04/19 03:22:13;;;;;;;4.28;3.50;;;;;;;10.41;61.11;94512.16;5045750;28;20025;-76
2023/04/19 03:24:39;;;;;;;3.65;3.10;;;;;;;10.41;61.12;94504.69;5044997;28;20106;-76
2023/04/19 03:27:05;;;;;;;4.43;3.28;;;;;;;10.49;61.07;94514.19;5028947;28;20198;-78
2023/04/19 03:29:30;;;;;;;3.17;2.88;;;;;;;10.50;60.92;94506.75;5047172;28;20450;-78
2023/04/19 03:31:55;;;;;;;4.00;3.42;;;;;;;10.30;61.10;94505.06;5045466;28;20017;-77
2023/04/19 03:34:21;;;;;;;5.75;3.40;;;;;;;10.41;61.36;94509.41;5048292;28;20384;-77
2023/04/19 03:36:49;;;;;;;4.70;3.40;;;;;;;10.37;61.29;94510.28;5046014;28;20044;-80
2023/04/19 03:39:14;;;;;;;4.28;3.38;;;;;;;10.09;62.21;94514.78;5046947;28;20029;-77
2023/04/19 03:41:40;;;;;;;5.35;3.95;;;;;;;9.95;62.89;94517.97;5044401;28;20044;-77
2023/04/19 03:44:05;;;;;;;5.20;3.67;;;;;;;10.04;62.47;94515.34;5044570;28;20056;-77
2023/04/19 03:46:30;;;;;;;6.28;3.83;;;;;;;10.15;62.27;94511.44;5045093;28;20029;-77
2023/04/19 03:48:56;;;;;;;4.15;3.45;;;;;;;10.16;62.10;94505.53;5044929;28;20021;-77
2023/04/19 03:51:22;;;;;;;4.72;3.63;;;;;;;10.19;61.96;94512.09;5044816;28;20060;-78
2023/04/19 03:53:47;;;;;;;4.90;3.58;;;;;;;10.08;62.20;94507.72;5027889;28;20074;-77
2023/04/19 03:56:13;;;;;;;4.30;3.25;;;;;;;10.16;62.40;94508.28;5045150;28;20032;-77
2023/04/19 03:58:38;;;;;;;4.45;3.45;;;;;;;10.08;62.46;94504.22;5028837;28;20495;-78
2023/04/19 04:01:05;;;;;;;4.40;3.47;;;;;;;10.11;62.21;94517.06;5050260;28;20103;-76
2023/04/19 04:03:31;;;;;;;4.32;3.45;;;;;;;10.01;62.33;94509.94;5045639;28;20025;-78
2023/04/19 04:05:57;;;;;;;4.68;3.80;;;;;;;10.09;62.48;94505.75;5028400;28;20553;-77
2023/04/19 04:08:22;;;;;;;6.15;4.07;;;;;;;10.02;62.41;94511.47;5044533;28;20025;-77
2023/04/19 04:10:47;;;;;;;4.53;3.60;;;;;;;10.03;62.50;94513.78;5045920;28;20500;-77
2023/04/19 04:13:13;;;;;;;5.13;3.97;;;;;;;10.19;61.93;94518.34;5046128;28;20091;-78
2023/04/19 04:15:38;;;;;;;4.47;3.80;;;;;;;10.13;62.02;94502.88;5045483;28;20025;-77
2023/04/19 04:18:04;;;;;;;4.43;3.78;;;;;;;10.14;62.38;94515.41;5044634;28;20032;-77
2023/04/19 04:20:30;;;;;;;5.68;3.63;;;;;;;10.09;62.35;94514.78;5027435;28;20025;-77
2023/04/19 04:22:55;;;;;;;7.55;4.60;;;;;;;10.13;62.40;94513.88;5045570;28;20029;-77
2023/04/19 04:25:21;;;;;;;5.75;4.22;;;;;;;9.95;62.99;94515.22;5043931;28;20483;-77
2023/04/19 04:27:50;;;;;;;8.10;4.43;;;;;;;10.08;62.38;94521.47;5045723;28;20499;-76
2023/04/19 04:30:15;;;;;;;5.68;4.30;;;;;;;10.09;62.37;94525.75;5044275;28;20033;-76
2023/04/19 04:32:42;;;;;;;5.13;4.10;;;;;;;10.16;62.19;94527.50;5044247;28;20047;-79
2023/04/19 04:35:09;;;;;;;4.85;4.30;;;;;;;10.00;62.82;94531.16;5044555;28;20021;-77
2023/04/19 04:37:35;;;;;;;5.32;4.22;;;;;;;9.83;63.25;94519.53;5043956;28;20033;-77
2023/04/19 04:40:03;;;;;;;5.75;4.40;;;;;;;9.85;63.35;94530.84;5045693;28;20029;-78
2023/04/19 04:42:30;;;;;;;8.25;4.50;;;;;;;9.88;63.17;94520.19;5044826;28;20029;-79
2023/04/19 04:44:56;;;;;;;5.28;4.20;;;;;;;10.01;62.96;94527.19;5027233;28;20513;-78
2023/04/19 04:47:22;;;;;;;5.68;4.35;;;;;;;10.00;62.93;94533.13;5043915;28;20100;-78
2023/04/19 04:49:48;;;;;;;7.57;4.20;;;;;;;10.04;62.64;94529.06;5043997;28;20116;-78
2023/04/19 04:52:13;;;;;;;5.90;4.22;;;;;;;10.10;62.58;94532.03;5046291;28;20025;-78
2023/04/19 04:54:39;;;;;;;7.50;4.10;;;;;;;10.09;62.47;94528.50;5032722;28;20373;-78
2023/04/19 04:57:04;;;;;;;4.70;3.58;;;;;;;10.18;62.28;94530.56;5045533;28;20539;-78
2023/04/19 04:59:30;;;;;;;7.53;4.65;;;;;;;10.14;62.46;94538.16;5044847;28;20045;-80
2023/04/19 05:01:55;;;;;;;4.97;3.40;;;;;;;10.13;62.51;94533.88;5043643;28;20032;-77
2023/04/19 05:04:20;;;;;;;4.80;3.88;;;;;;;9.98;63.16;94535.56;5044885;28;20126;-79
2023/04/19 05:06:46;;;;;;;6.35;4.05;;;;;;;9.94;63.05;94535.66;5044185;28;20028;-78
2023/04/19 05:09:11;;;;;;;5.50;4.13;;;;;;;10.00;62.91;94536.66;5043579;28;20047;-79
2023/04/19 05:11:37;;;;;;;5.50;4.43;;;;;;;9.92;63.25;94538.09;5043741;28;20102;-79
2023/04/19 05:14:03;;;;;;;4.97;3.63;;;;;;;9.77;63.69;94540.53;5027045;28;20029;-78
2023/04/19 05:16:28;;;;;;;6.32;4.00;;;;;;;9.88;63.93;94542.94;5042434;28;20025;-81
2023/04/19 05:18:54;;;;;;;5.07;3.97;;;;;;;9.75;63.95;94537.47;5042880;28;20399;-80
2023/04/19 05:21:20;;;;;;;4.57;3.75;;;;;;;9.77;63.88;94540.53;5043162;28;20027;-78
2023/04/19 05:23:45;;;;;;;4.80;3.95;;;;;;;9.92;63.44;94540.84;5043717;28;20025;-80
2023/04/19 05:26:14;;;;;;;4.95;4.00;;;;;;;9.95;63.40;94541.94;5044618;28;20032;-80
2023/04/19 05:28:39;;;;;;;5.60;3.88;;;;;;;9.92;63.34;94542.81;5045134;28;20159;-79
2023/04/19 05:31:05;;;;;;;4.80;3.80;;;;;;;9.97;63.42;94547.72;5043690;28;20108;-79
2023/04/19 05:33:30;;;;;;;5.47;4.22;;;;;;;10.10;62.90;94546.50;5043485;28;20395;-80
2023/04/19 05:35:55;;;;;;;5.65;4.07;;;;;;;10.05;63.35;94547.06;5043927;28;20027;-80
2023/04/19 05:38:21;;;;;;;5.40;4.00;;;;;;;10.03;63.50;94543.97;5044714;28;20029;-79
2023/04/19 05:40:46;;;;;;;8.65;4.18;;;;;;;10.00;63.38;94541.38;5043680;28;20566;-80
2023/04/19 05:43:12;;;;;;;6.22;4.43;;;;;;;10.15;63.28;94552.63;5042566;28;20134;-80
2023/04/19 05:45:37;;;;;;;5.25;3.80;;;;;;;9.98;63.58;94543.81;5043878;28;20021;-77
2023/04/19 05:48:03;;;;;;;5.22;4.13;;;;;;;9.89;63.72;94544.47;5049943;28;20457;-78
2023/04/19 05:50:28;;;;;;;7.63;4.10;;;;;;;9.97;63.66;94545.75;5045048;28;20112;-77
2023/04/19 05:52:54;;;;;;;5.63;4.05;;;;;;;10.01;63.50;94540.16;5045326;28;20040;-76
2023/04/19 05:55:19;;;;;;;5.65;3.97;;;;;;;10.17;63.10;94550.25;5044223;28;20184;-77
2023/04/19 05:57:44;;;;;;;5.65;4.25;;;;;;;10.32;62.73;94554.84;5044826;28;20033;-79
2023/04/19 06:00:10;;;;;;;5.65;4.05;;;;;;;10.33;62.87;94539.91;5042626;28;20039;-79
2023/04/19 06:02:36;;;;;;;5.30;3.90;;;;;;;10.50;62.45;94545.22;5045006;28;20454;-78
2023/04/19 06:05:03;;;;;;;7.00;3.70;;;;;;;10.60;62.11;94544.81;5044142;28;20100;-78
2023/04/19 06:07:29;;;;;;;6.53;4.25;;;;;;;10.70;61.97;94545.69;5046846;28;20029;-77
2023/04/19 06:09:55;;;;;;;4.55;3.92;;;;;;;10.79;61.50;94554.00;5047946;28;20444;-79
2023/04/19 06:12:20;;;;;;;4.70;3.50;;;;;;;10.87;61.07;94560.78;5046623;28;20040;-79
2023/04/19 06:14:46;;;;;;;6.75;4.05;;;;;;;10.93;61.06;94557.44;5046867;28;20028;-79
2023/04/19 06:17:11;;;;;;;9.05;4.40;;;;;;;10.89;61.19;94558.31;5047963;28;20064;-78
2023/04/19 06:19:36;;;;;;;6.28;4.32;;;;;;;10.96;60.68;94551.81;5046709;28;20206;-79
2023/04/19 06:22:02;;;;;;;7.18;4.25;;;;;;;10.96;60.61;94557.31;5047649;28;20047;-78
2023/04/19 06:24:27;;;;;;;5.75;4.25;;;;;;;11.13;60.37;94555.91;5046472;28;20033;-78
2023/04/19 06:26:53;;;;;;;7.00;4.30;;;;;;;11.26;59.73;94553.06;5047600;28;20382;-76
2023/04/19 06:29:20;;;;;;;5.88;4.22;;;;;;;11.16;60.02;94554.22;5046336;28;20028;-79
2023/04/19 06:31:46;;;;;;;6.75;4.75;;;;;;;11.27;59.86;94557.34;5046762;28;20109;-76
2023/04/19 06:34:11;;;;;;;6.25;4.40;;;;;;;11.23;60.01;94559.47;5047320;28;20509;-77
2023/04/19 06:36:37;;;;;;;5.47;3.80;;;;;;;11.21;59.87;94556.41;5029944;28;20017;-78
2023/04/19 06:39:03;;;;;;;7.82;4.97;;;;;;;11.39;59.28;94566.75;5045624;28;20149;-77
2023/04/19 06:41:28;;;;;;;8.55;5.07;;;;;;;11.36;59.28;94564.91;5048259;28;20029;-77
2023/04/19 06:43:53;;;;;;;6.93;4.90;;;;;;;11.38;58.96;94562.47;5050958;28;20029;-77
2023/04/19 06:46:19;;;;;;;7.38;4.32;;;;;;;11.46;58.93;94571.97;5047418;28;20025;-78
2023/04/19 06:48:44;;;;;;;6.53;4.80;;;;;;;11.25;59.27;94561.78;5047352;28;20449;-77
2023/04/19 06:51:10;;;;;;;5.50;4.15;;;;;;;11.42;58.71;94574.88;5046183;28;20109;-78
2023/04/19 06:53:36;;;;;;;8.07;4.88;;;;;;;11.38;59.10;94563.22;5029316;28;20491;-78
2023/04/19 06:56:05;;;;;;;7.47;5.47;;;;;;;11.45;59.08;94570.44;5045865;28;20090;-79
2023/04/19 06:58:31;;;;;;;6.03;4.10;;;;;;;11.41;59.23;94573.34;5029328;28;20635;-78
2023/04/19 07:00:57;;;;;;;5.43;4.32;;;;;;;11.40;59.16;94574.53;5045553;28;20506;-78
2023/04/19 07:03:22;;;;;;;6.25;3.45;;;;;;;11.17;59.54;94567.53;5045827;28;20021;-77
2023/04/19 07:05:48;;;;;;;4.20;3.60;;;;;;;11.27;59.27;94570.34;5045471;28;20468;-78
2023/04/19 07:08:14;;;;;;;5.13;3.53;;;;;;;11.39;59.19;94572.25;5029134;28;20024;-79
2023/04/19 07:10:41;;;;;;;8.00;3.72;;;;;;;11.52;58.96;94580.41;5046933;28;20036;-79
2023/04/19 07:13:07;;;;;;;4.97;3.70;;;;;;;11.61;58.92;94574.94;5045591;28;20048;-81
2023/04/19 07:15:32;;;;;;;5.47;4.20;;;;;;;11.70;58.51;94583.25;5047017;28;20079;-79
2023/04/19 07:17:58;;;;;;;5.55;3.88;;;;;;;11.74;58.44;94580.34;5046079;28;20017;-79
2023/04/19 07:20:23;;;;;;;6.95;3.80;;;;;;;11.81;57.98;94578.09;5045996;28;20021;-79
2023/04/19 07:22:48;;;;;;;5.35;3.30;;;;;;;11.80;58.11;94575.78;5046436;28;20032;-79
2023/04/19 07:25:14;;;;;;;7.45;3.28;;;;;;;11.65;58.15;94579.09;5047120;28;20502;-78
2023/04/19 07:27:40;;;;;;;5.28;3.58;;;;;;;11.62;57.89;94579.22;5045206;28;20105;-80
2023/04/19 07:30:06;;;;;;;5.90;3.38;;;;;;;11.71;57.78;94576.53;5047171;28;20124;-80
2023/04/19 07:32:31;;;;;;;3.78;2.88;;;;;;;11.71;57.67;94584.78;5045585;28;20021;-79
2023/04/19 07:34:57;;;;;;;4.22;2.95;;;;;;;11.79;57.32;94582.53;5047048;28;20391;-79
2023/04/19 07:37:22;;;;;;;4.35;3.20;;;;;;;11.87;57.01;94576.31;5054356;28;20421;-80
2023/04/19 07:39:47;;;;;;;4.47;3.38;;;;;;;11.82;57.44;94576.16;5044771;28;20484;-79
2023/04/19 07:42:13;;;;;;;5.35;3.42;;;;;;;11.87;57.37;94579.06;5045203;28;20025;-79
2023/04/19 07:44:38;;;;;;;4.30;3.28;;;;;;;11.93;57.33;94582.00;5044264;28;20029;-79
2023/04/19 07:47:06;;;;;;;6.43;3.40;;;;;;;11.83;57.54;94581.19;5046624;28;20540;-79
2023/04/19 07:49:33;;;;;;;4.35;3.10;;;;;;;11.90;57.56;94577.38;5044861;28;20043;-79
2023/04/19 07:52:01;;;;;;;7.18;3.85;;;;;;;12.10;56.78;94583.28;5046470;28;20487;-79
2023/04/19 07:54:27;;;;;;;4.95;3.28;;;;;;;12.05;56.47;94572.84;5046386;28;20025;-79
2023/04/19 07:56:52;;;;;;;4.50;2.88;;;;;;;12.08;56.71;94587.69;5044456;28;20103;-78
2023/04/19 07:59:18;;;;;;;6.35;2.83;;;;;;;12.04;56.94;94585.06;5044805;28;20197;-78
2023/04/19 08:01:43;;;;;;;3.70;2.97;;;;;;;12.16;56.64;94584.22;5045626;28;20175;-80
2023/04/19 08:04:09;;;;;;;3.95;3.25;;;;;;;12.07;56.60;94586.16;5046361;28;20118;-80
2023/04/19 08:06:36;;;;;;;7.80;2.97;;;;;;;11.80;57.32;94578.53;5045967;28;20033;-79
2023/04/19 08:09:02;;;;;;;6.53;3.22;;;;;;;11.88;57.13;94579.84;5044784;28;20036;-80
2023/04/19 08:11:28;;;;;;;3.20;2.47;;;;;;;11.93;56.77;94582.78;5044514;28;20021;-80
2023/04/19 08:13:53;;;;;;;4.97;3.22;;;;;;;11.82;57.18;94576.91;5045865;28;20518;-80
2023/04/19 08:16:18;;;;;;;3.22;2.58;;;;;;;11.95;56.73;94585.81;5046358;28;20051;-80
2023/04/19 08:18:45;;;;;;;4.05;2.83;;;;;;;11.86;56.98;94580.28;5045283;28;20518;-80
2023/04/19 08:21:10;;;;;;;4.60;2.80;;;;;;;12.00;56.30;94583.72;5044712;28;20029;-79
2023/04/19 08:23:36;;;;;;;5.60;3.35;;;;;;;11.97;56.29;94579.84;5043958;28;20021;-80
2023/04/19 08:26:01;;;;;;;3.90;2.60;;;;;;;12.21;55.74;94580.88;5044459;28;20458;-80
2023/04/19 08:28:27;;;;;;;5.00;3.05;;;;;;;12.29;55.43;94578.56;5045670;28;20032;-80
2023/04/19 08:30:53;;;;;;;3.80;2.60;;;;;;;12.32;55.50;94576.88;5052534;28;20037;-79
2023/04/19 08:33:19;;;;;;;2.90;2.17;;;;;;;12.44;54.87;94579.53;5045278;28;20108;-80
2023/04/19 08:35:44;;;;;;;4.00;2.55;;;;;;;12.41;55.15;94571.41;5043495;28;20467;-80
2023/04/19 08:38:10;;;;;;;3.80;2.40;;;;;;;12.47;55.02;94577.84;5044446;28;20029;-80
2023/04/19 08:40:40;;;;;;;3.17;2.15;;;;;;;12.34;55.29;94572.47;5045384;28;20028;-79
2023/04/19 08:43:06;;;;;;;4.43;2.65;;;;;;;12.39;54.81;94573.84;5044123;28;20032;-79
2023/04/19 08:45:31;;;;;;;5.30;2.65;;;;;;;12.41;54.83;94565.88;5045566;28;20045;-79
2023/04/19 08:47:57;;;;;;;5.18;2.53;;;;;;;12.60;54.51;94561.91;5043894;28;20060;-81
2023/04/19 08:50:23;;;;;;;6.32;3.53;;;;;;;12.56;54.77;94557.75;5044344;28;20475;-80
2023/04/19 08:52:48;;;;;;;5.65;3.00;;;;;;;12.76;54.77;94556.09;5043482;28;20021;-80
2023/04/19 08:55:14;;;;;;;4.93;3.13;;;;;;;12.81;54.26;94551.97;5044151;28;20108;-81
2023/04/19 08:57:40;;;;;;;5.57;3.25;;;;;;;12.89;54.24;94553.16;5043168;28;20041;-80
2023/04/19 09:00:08;;;;;;;7.25;4.35;;;;;;;13.09;53.84;94566.50;5045484;28;20032;-80
2023/04/19 09:02:46;;;;;;;5.25;2.95;;;;;;;13.14;52.96;94556.84;5043551;28;20124;-80
2023/04/19 09:05:15;;;;;;;5.30;2.78;;;;;;;13.30;52.91;94550.97;5044207;28;20028;-80
2023/04/19 09:07:41;;;;;;;3.72;2.30;;;;;;;13.66;50.98;94563.16;5027392;28;20025;-81
2023/04/19 09:10:07;;;;;;;5.75;2.70;;;;;;;13.72;50.91;94555.78;5044687;28;20040;-81
2023/04/19 09:12:34;;;;;;;4.55;2.83;;;;;;;13.79;50.03;94549.91;5044140;28;20059;-81
2023/04/19 09:15:01;;;;;;;2.60;2.00;;;;;;;14.05;49.39;94553.78;5043315;28;20029;-80
2023/04/19 09:17:26;;;;;;;3.40;2.38;;;;;;;14.27;48.89;94545.19;5027688;28;20107;-80
2023/04/19 09:19:51;;;;;;;5.63;2.55;;;;;;;14.68;48.74;94545.59;5044718;28;20345;-81
2023/04/19 09:22:17;;;;;;;5.38;2.70;;;;;;;14.93;47.86;94549.84;5027219;28;20136;-81
2023/04/19 09:24:43;;;;;;;5.80;3.20;;;;;;;15.04;47.61;94540.97;5052802;28;20444;-81
2023/04/19 09:27:10;;;;;;;3.70;3.10;;;;;;;15.39;46.49;94536.31;5046242;28;20430;-81
2023/04/19 09:29:37;;;;;;;4.82;3.22;;;;;;;15.80;45.35;94538.50;5027977;28;20360;-81
2023/04/19 09:32:02;;;;;;;3.75;2.05;;;;;;;16.22;44.83;94540.88;5044906;28;20059;-81
2023/04/19 09:34:29;;;;;;;2.70;2.17;;;;;;;16.38;43.94;94545.13;5044086;28;20420;-79
2023/04/19 09:36:55;;;;;;;3.10;2.15;;;;;;;16.46;44.34;94546.25;5043246;28;20026;-82
2023/04/19 09:39:35;;;;;;;3.42;2.53;;;;;;;16.59;43.54;94543.13;5045221;28;20044;-79
2023/04/19 09:42:00;;;;;;;2.97;2.03;;;;;;;17.13;42.48;94543.50;5046621;28;20074;-81
2023/04/19 09:44:27;;;;;;;7.10;3.03;;;;;;;17.13;42.22;94538.72;5047256;28;20032;-81
2023/04/19 09:46:54;;;;;;;3.92;2.42;;;;;;;16.86;42.27;94534.41;5049028;28;20025;-81
2023/04/19 09:49:24;;;;;;;3.80;2.30;;;;;;;17.27;41.29;94539.13;5030743;28;20033;-82
2023/04/19 09:51:54;;;;;;;2.70;1.90;;;;;;;17.51;40.27;94529.25;5048790;28;20021;-82
2023/04/19 09:54:21;;;;;;;4.50;2.17;;;;;;;17.45;40.79;94527.66;5047016;28;20110;-80
2023/04/19 09:56:48;;;;;;;2.80;2.40;;;;;;;17.33;41.01;94523.28;5047352;28;20041;-81
2023/04/19 09:59:14;;;;;;;3.30;2.50;;;;;;;17.30;41.29;94518.69;5047082;28;20045;-82
2023/04/19 10:01:43;;;;;;;3.78;2.70;;;;;;;17.43;41.08;94527.38;5048626;28;20033;-80
2023/04/19 10:04:11;;;;;;;3.95;2.40;;;;;;;17.51;41.46;94525.69;5048659;28;20025;-80
2023/04/19 10:06:38;;;;;;;3.72;2.42;;;;;;;17.52;40.60;94527.22;5048305;28;20036;-81
2023/04/19 10:09:04;;;;;;;3.33;2.55;;;;;;;17.65;40.23;94522.03;5047050;28;20028;-82
2023/04/19 10:11:40;;;;;;;2.80;2.25;;;;;;;17.33;40.94;94517.72;5047924;28;20021;-81
2023/04/19 10:14:07;;;;;;;5.03;2.55;;;;;;;17.52;40.69;94521.66;5030898;28;20033;-80
2023/04/19 10:16:34;;;;;;;4.20;2.67;;;;;;;17.65;39.98;94513.69;5047038;28;20036;-81
2023/04/19 10:19:01;;;;;;;4.22;2.90;;;;;;;17.78;39.76;94519.66;5055076;28;20127;-80
2023/04/19 10:21:27;;;;;;;5.22;3.60;;;;;;;17.86;39.13;94505.28;5051982;28;20373;-80
2023/04/19 10:23:54;;;;;;;4.82;2.90;;;;;;;18.02;39.05;94507.41;5046408;28;20094;-80
2023/04/19 10:26:21;;;;;;;4.18;3.05;;;;;;;18.47;38.77;94505.66;5048318;28;20024;-80
2023/04/19 10:28:47;;;;;;;3.78;2.63;;;;;;;18.62;38.17;94505.44;5046278;28;20089;-81
2023/04/19 10:31:13;;;;;;;3.28;2.60;;;;;;;18.72;38.69;94504.00;5046653;28;20503;-81
2023/04/19 10:33:39;;;;;;;3.45;2.55;;;;;;;19.00;37.58;94501.31;5046931;28;20503;-83
2023/04/19 10:36:08;;;;;;;4.07;2.38;;;;;;;19.39;37.03;94497.06;5031213;28;20036;-81
2023/04/19 10:38:43;;;;;;;4.68;3.00;;;;;;;19.60;36.01;94498.38;5047193;28;20086;-81
2023/04/19 10:41:13;;;;;;;3.22;2.53;;;;;;;19.81;35.10;94494.06;5047871;28;20021;-81
2023/04/19 10:43:59;;;;;;;2.88;2.00;;;;;;;20.02;34.27;94485.44;5030442;28;20572;-81
2023/04/19 10:46:27;;;;;;;3.75;2.67;;;;;;;20.35;34.04;94487.34;5046849;28;20037;-82
2023/04/19 10:48:56;;;;;;;3.38;2.40;;;;;;;20.65;33.98;94496.69;5046717;28;20514;-82
2023/04/19 10:51:35;;;;;;;4.45;2.80;;;;;;;21.00;33.17;94491.72;5046146;28;20029;-81
2023/04/19 10:54:05;;;;;;;4.38;2.67;;;;;;;21.12;32.54;94490.38;5045756;28;20045;-83
2023/04/19 10:56:33;;;;;;;3.50;2.30;;;;;;;21.31;31.77;94482.91;5046503;28;20100;-82
2023/04/19 10:58:59;;;;;;;5.00;3.10;;;;;;;21.42;32.28;94476.47;5046952;28;20144;-83
2023/04/19 11:01:38;;;;;;;2.95;2.42;;;;;;;21.79;31.81;94475.16;5047563;28;20092;-83
2023/04/19 11:04:30;;;;;;;3.40;2.30;;;;;;;21.97;31.13;94469.66;5045599;28;20035;-83
2023/04/19 11:07:04;;;;;;;2.60;2.20;;;;;;;22.40;30.92;94479.44;5045964;28;20056;-82
2023/04/19 11:09:43;;;;;;;3.42;1.98;;;;;;;22.31;30.19;94476.97;5047653;28;20037;-83
2023/04/19 11:12:14;;;;;;;2.58;2.00;;;;;;;22.24;30.07;94470.69;5046737;28;20068;-83
2023/04/19 11:14:40;;;;;;;3.13;2.45;;;;;;;22.93;29.48;94466.59;5057213;28;20040;-82
2023/04/19 11:17:18;;;;;;;3.38;2.03;;;;;;;23.24;28.92;94462.34;5046559;28;20035;-83
2023/04/19 11:19:54;;;;;;;4.75;2.70;;;;;;;22.60;30.16;94464.19;5047087;28;20035;-82
2023/04/19 11:22:34;;;;;;;3.47;2.35;;;;;;;23.65;28.30;94458.44;5045827;28;20025;-82
2023/04/19 11:25:09;;;;;;;5.63;2.70;;;;;;;24.69;27.03;94458.38;5045344;28;20498;-82
2023/04/19 11:27:34;;;;;;;3.28;2.40;;;;;;;25.56;25.35;94468.78;5047316;28;20031;-82
2023/04/19 11:30:07;;;;;;;4.07;2.13;;;;;;;26.56;24.35;94459.13;5045795;28;20100;-83